WXM80 ListenWXM80 Stop

You find our weather info also at:

UK Metoffice

WeatherCloud

Weather Underground

Northeastern Weather Network

AWEKAS

Citizen Weather Observer Program (CWOP)

HAMweather, WeatherForYou, PWS Weather


Weather Underground History page Text

Daily Summary for March 19, 2016 Units:  English    Metric   Both
« Previous Day
Next Day »
Daily Weekly Monthly Yearly Custom
  High: Low: Average:
Temperature: 47.1 °F 35.0 °F 41.6 °F
Dew Point: 33.4 °F 17.2 °F 23.1 °F
Humidity: 69 % 32 % 48 %
Wind Speed: 10.4 mph 0.0 mph 3.5 mph
Wind Gust: 16.1 mph - -
Wind:- - South
Pressure: 30.13 in 29.93 in -
Precipitation: 0.00 in    
Historical Graphs
 
 
Tabular Data for March 19, 2016
Time Temperature Dew Point Pressure Wind Wind Speed Wind Gust Humidity Rainfall Rate (Hourly)
00:00 43.3 °F 33.4 °F 29.93 in North 5.9 mph 10.4 mph 68 % 0.00 in
00:05 43.1 °F 32.9 °F 29.94 in North 6.2 mph 9.2 mph 67 % 0.00 in
00:10 42.9 °F 32.7 °F 29.94 in NNE 5.6 mph 11.0 mph 67 % 0.00 in
00:15 42.8 °F 33.0 °F 29.95 in North 6.1 mph 10.4 mph 68 % 0.00 in
00:20 42.7 °F 33.2 °F 29.95 in NNW 4.5 mph 10.4 mph 69 % 0.00 in
00:25 42.5 °F 31.9 °F 29.95 in WNW 4.2 mph 5.8 mph 66 % 0.00 in
00:30 42.5 °F 31.9 °F 29.95 in North 3.6 mph 6.9 mph 66 % 0.00 in
00:36 42.3 °F 31.0 °F 29.95 in North 5.1 mph 9.2 mph 64 % 0.00 in
00:41 42.2 °F 31.3 °F 29.96 in North 3.4 mph 6.9 mph 65 % 0.00 in
00:46 42.1 °F 31.6 °F 29.96 in North 5.8 mph 8.1 mph 66 % 0.00 in
00:51 42.0 °F 29.9 °F 29.96 in North 3.1 mph 5.8 mph 62 % 0.00 in
00:56 41.9 °F 29.8 °F 29.96 in WNW 3.9 mph 6.0 mph 62 % 0.00 in
01:01 41.8 °F 29.7 °F 29.96 in NW 3.4 mph 6.9 mph 62 % 0.00 in
01:06 41.8 °F 29.7 °F 29.97 in NW 4.3 mph 12.7 mph 62 % 0.00 in
01:16 41.6 °F 31.1 °F 29.97 in NNW 5.7 mph 9.2 mph 66 % 0.00 in
01:21 41.4 °F 30.9 °F 29.97 in NNE 7.3 mph 10.4 mph 66 % 0.00 in
01:27 41.2 °F 30.3 °F 29.98 in North 4.9 mph 5.0 mph 65 % 0.00 in
01:32 41.0 °F 30.1 °F 29.98 in NNE 8.3 mph 14.0 mph 65 % 0.00 in
01:37 40.8 °F 28.4 °F 29.98 in NNE 8.8 mph 11.5 mph 61 % 0.00 in
01:42 40.6 °F 28.2 °F 29.98 in North 5.8 mph 11.5 mph 61 % 0.00 in
01:47 40.5 °F 28.1 °F 29.99 in NNW 4.7 mph 6.9 mph 61 % 0.00 in
01:52 40.3 °F 27.9 °F 29.99 in NE 6.4 mph 9.0 mph 61 % 0.00 in
01:57 40.2 °F 27.8 °F 29.99 in NNE 5.2 mph 9.2 mph 61 % 0.00 in
02:02 40.1 °F 27.3 °F 29.99 in North 6.4 mph 11.5 mph 60 % 0.00 in
02:07 40.0 °F 26.0 °F 29.99 in NNE 5.7 mph 12.7 mph 57 % 0.00 in
02:12 39.9 °F 25.9 °F 30.00 in NNE 4.2 mph 8.1 mph 57 % 0.00 in
02:18 39.8 °F 25.4 °F 30.00 in NNE 7.0 mph 10.0 mph 56 % 0.00 in
02:23 39.7 °F 25.7 °F 30.00 in NNE 7.4 mph 11.5 mph 57 % 0.00 in
02:28 39.6 °F 25.2 °F 30.00 in NNE 9.2 mph 11.5 mph 56 % 0.00 in
02:33 39.5 °F 24.7 °F 30.00 in North 7.0 mph 10.4 mph 55 % 0.00 in
02:38 39.4 °F 25.0 °F 30.00 in NNW 7.9 mph 11.5 mph 56 % 0.00 in
02:43 39.3 °F 24.5 °F 30.00 in North 8.1 mph 11.5 mph 55 % 0.00 in
02:48 39.2 °F 24.4 °F 30.00 in NNE 7.0 mph 11.0 mph 55 % 0.00 in
02:53 39.1 °F 23.8 °F 30.00 in NNW 6.3 mph 11.5 mph 54 % 0.00 in
02:58 39.0 °F 24.2 °F 30.00 in North 6.3 mph 7.0 mph 55 % 0.00 in
03:03 38.9 °F 23.7 °F 29.99 in North 4.3 mph 10.4 mph 54 % 0.00 in
03:14 38.7 °F 23.5 °F 30.00 in NNE 7.3 mph 7.3 mph 54 % 0.00 in
03:19 38.6 °F 23.8 °F 30.00 in North 6.4 mph 9.2 mph 55 % 0.00 in
03:24 38.5 °F 24.1 °F 30.00 in North 3.4 mph 4.6 mph 56 % 0.00 in
03:29 38.4 °F 24.5 °F 30.00 in NNE 4.8 mph 9.2 mph 57 % 0.00 in
03:34 38.3 °F 24.4 °F 30.00 in North 3.9 mph 4.6 mph 57 % 0.00 in
03:39 38.2 °F 24.3 °F 30.00 in North 3.4 mph 4.6 mph 57 % 0.00 in
03:44 38.0 °F 24.1 °F 30.00 in NNE 4.1 mph 7.0 mph 57 % 0.00 in
03:49 37.9 °F 23.2 °F 30.00 in NNW 4.0 mph 6.9 mph 55 % 0.00 in
03:54 37.9 °F 23.6 °F 30.00 in North 0.6 mph 3.5 mph 56 % 0.00 in
04:00 37.8 °F 23.9 °F 30.01 in North 2.1 mph 3.5 mph 57 % 0.00 in
04:05 37.7 °F 23.8 °F 30.00 in North 2.5 mph 5.8 mph 57 % 0.00 in
04:10 37.6 °F 23.3 °F 30.00 in North 4.3 mph 8.1 mph 56 % 0.00 in
04:15 37.5 °F 23.6 °F 30.00 in North 3.7 mph 6.9 mph 57 % 0.00 in
04:20 37.5 °F 23.2 °F 30.01 in North 3.5 mph 5.0 mph 56 % 0.00 in
04:25 37.3 °F 23.0 °F 30.01 in NNE 5.1 mph 6.9 mph 56 % 0.00 in
04:30 37.3 °F 23.4 °F 30.02 in North 3.5 mph 8.1 mph 57 % 0.00 in
04:35 37.3 °F 23.4 °F 30.02 in NE 4.1 mph 6.0 mph 57 % 0.00 in
04:40 37.2 °F 23.8 °F 30.02 in NNE 1.6 mph 4.6 mph 58 % 0.00 in
04:45 37.1 °F 23.7 °F 30.02 in NNW 3.0 mph 4.6 mph 58 % 0.00 in
04:51 37.1 °F 23.3 °F 30.02 in NNE 5.4 mph 8.1 mph 57 % 0.00 in
04:56 37.0 °F 23.6 °F 30.02 in NE 4.7 mph 6.9 mph 58 % 0.00 in
05:01 36.9 °F 22.7 °F 30.03 in NNW 4.8 mph 10.4 mph 56 % 0.00 in
05:06 36.9 °F 21.8 °F 30.03 in NNE 6.9 mph 11.0 mph 54 % 0.00 in
05:11 36.8 °F 21.7 °F 30.03 in NNE 3.2 mph 9.2 mph 54 % 0.00 in
05:16 36.8 °F 21.7 °F 30.04 in NNW 6.0 mph 9.2 mph 54 % 0.00 in
05:21 36.7 °F 21.6 °F 30.04 in North 6.4 mph 11.5 mph 54 % 0.00 in
05:26 36.6 °F 21.9 °F 30.05 in NNE 7.8 mph 10.4 mph 55 % 0.00 in
05:31 36.5 °F 21.8 °F 30.05 in NNE 7.0 mph 10.4 mph 55 % 0.00 in
05:36 36.5 °F 22.7 °F 30.05 in NNE 3.1 mph 5.8 mph 57 % 0.00 in
05:42 36.4 °F 22.6 °F 30.06 in North 4.2 mph 8.1 mph 57 % 0.00 in
05:47 36.3 °F 22.1 °F 30.06 in North 3.0 mph 5.8 mph 56 % 0.00 in
05:52 36.2 °F 22.0 °F 30.06 in NNE 4.9 mph 10.4 mph 56 % 0.00 in
05:57 36.1 °F 22.3 °F 30.06 in NNE 1.8 mph 4.6 mph 57 % 0.00 in
06:02 36.0 °F 21.8 °F 30.06 in North 4.2 mph 5.8 mph 56 % 0.00 in
06:07 35.9 °F 21.7 °F 30.06 in NW 2.3 mph 4.6 mph 56 % 0.00 in
06:12 35.8 °F 21.6 °F 30.07 in NNW 4.3 mph 8.1 mph 56 % 0.00 in
06:17 35.7 °F 21.1 °F 30.07 in NNE 4.6 mph 8.1 mph 55 % 0.00 in
06:22 35.6 °F 21.4 °F 30.07 in NNE 5.3 mph 7.0 mph 56 % 0.00 in
06:27 35.5 °F 21.3 °F 30.06 in NNE 2.9 mph 6.9 mph 56 % 0.00 in
06:33 35.3 °F 21.6 °F 30.06 in North 4.9 mph 7.0 mph 57 % 0.00 in
06:38 35.2 °F 21.5 °F 30.07 in North 3.3 mph 6.0 mph 57 % 0.00 in
06:43 35.2 °F 21.9 °F 30.07 in NNE 3.1 mph 6.0 mph 58 % 0.00 in
06:48 35.1 °F 21.8 °F 30.08 in NNW 2.2 mph 5.0 mph 58 % 0.00 in
06:53 35.0 °F 21.3 °F 30.08 in North 4.3 mph 6.9 mph 57 % 0.00 in
06:58 35.0 °F 21.7 °F 30.08 in NNE 5.0 mph 6.9 mph 58 % 0.00 in
07:03 35.0 °F 21.7 °F 30.08 in North 4.0 mph 5.8 mph 58 % 0.00 in
07:08 35.0 °F 21.7 °F 30.08 in North 3.3 mph 5.8 mph 58 % 0.00 in
07:13 35.0 °F 21.7 °F 30.09 in NNE 6.4 mph 11.5 mph 58 % 0.00 in
07:18 35.1 °F 21.8 °F 30.09 in North 6.2 mph 9.2 mph 58 % 0.00 in
07:24 35.2 °F 21.9 °F 30.09 in NNE 5.5 mph 8.1 mph 58 % 0.00 in
07:29 35.3 °F 22.0 °F 30.09 in North 4.8 mph 7.0 mph 58 % 0.00 in
07:34 35.4 °F 22.1 °F 30.10 in NNE 5.0 mph 6.9 mph 58 % 0.00 in
07:39 35.5 °F 22.2 °F 30.10 in NNE 5.6 mph 9.2 mph 58 % 0.00 in
07:44 35.6 °F 21.9 °F 30.09 in NNE 5.4 mph 8.1 mph 57 % 0.00 in
07:49 35.7 °F 21.9 °F 30.10 in NNE 4.6 mph 8.1 mph 57 % 0.00 in
07:54 35.8 °F 22.5 °F 30.10 in NNE 4.5 mph 8.1 mph 58 % 0.00 in
07:59 35.9 °F 22.1 °F 30.10 in NNE 5.2 mph 9.2 mph 57 % 0.00 in
08:04 36.2 °F 22.8 °F 30.10 in North 4.4 mph 9.0 mph 58 % 0.00 in
08:09 36.4 °F 23.0 °F 30.10 in North 4.8 mph 5.0 mph 58 % 0.00 in
08:15 36.4 °F 23.0 °F 30.10 in NE 4.0 mph 5.8 mph 58 % 0.00 in
08:20 36.6 °F 23.2 °F 30.10 in North 3.6 mph 6.9 mph 58 % 0.00 in
08:25 36.8 °F 23.0 °F 30.10 in NNE 4.1 mph 6.9 mph 57 % 0.00 in
08:30 37.1 °F 23.3 °F 30.10 in North 3.5 mph 8.1 mph 57 % 0.00 in
08:35 37.5 °F 23.6 °F 30.10 in NE 5.2 mph 10.4 mph 57 % 0.00 in
08:45 38.3 °F 23.1 °F 30.10 in NNW 2.4 mph 5.8 mph 54 % 0.00 in
08:50 38.7 °F 23.9 °F 30.10 in NNE 4.0 mph 5.8 mph 55 % 0.00 in
08:55 39.1 °F 23.4 °F 30.10 in NE 4.4 mph 9.0 mph 53 % 0.00 in
09:00 39.3 °F 23.1 °F 30.10 in NNE 5.5 mph 7.0 mph 52 % 0.00 in
09:06 39.5 °F 23.3 °F 30.10 in North 5.2 mph 7.0 mph 52 % 0.00 in
09:11 39.7 °F 23.5 °F 30.10 in North 4.9 mph 7.0 mph 52 % 0.00 in
09:16 39.8 °F 23.6 °F 30.10 in NNE 4.9 mph 8.1 mph 52 % 0.00 in
09:21 40.1 °F 23.9 °F 30.10 in NNE 3.1 mph 4.6 mph 52 % 0.00 in
09:26 40.0 °F 23.3 °F 30.10 in North 2.2 mph 5.8 mph 51 % 0.00 in
09:31 40.1 °F 22.9 °F 30.11 in North 3.1 mph 6.0 mph 50 % 0.00 in
09:36 40.2 °F 23.0 °F 30.11 in NE 3.3 mph 5.8 mph 50 % 0.00 in
09:41 40.2 °F 22.1 °F 30.11 in NW 4.7 mph 6.9 mph 48 % 0.00 in
09:46 40.4 °F 22.7 °F 30.11 in North 3.0 mph 4.0 mph 49 % 0.00 in
09:51 40.7 °F 23.0 °F 30.11 in North 4.2 mph 4.2 mph 49 % 0.00 in
09:57 41.1 °F 23.4 °F 30.12 in NNE 2.3 mph 4.6 mph 49 % 0.00 in
10:02 41.1 °F 23.4 °F 30.12 in NW 2.5 mph 3.5 mph 49 % 0.00 in
10:07 41.3 °F 22.6 °F 30.12 in NNE 1.8 mph 5.0 mph 47 % 0.00 in
10:12 41.4 °F 23.2 °F 30.12 in North 2.7 mph 3.5 mph 48 % 0.00 in
10:17 41.5 °F 23.7 °F 30.12 in North 2.8 mph 4.0 mph 49 % 0.00 in
10:22 41.6 °F 23.3 °F 30.13 in NNW 3.0 mph 5.8 mph 48 % 0.00 in
10:27 41.8 °F 24.0 °F 30.13 in NNW 3.5 mph 5.8 mph 49 % 0.00 in
10:32 42.2 °F 24.4 °F 30.13 in North 2.3 mph 5.0 mph 49 % 0.00 in
10:37 42.6 °F 23.8 °F 30.12 in North 2.3 mph 6.0 mph 47 % 0.00 in
10:43 42.8 °F 24.4 °F 30.13 in North 1.9 mph 4.0 mph 48 % 0.00 in
10:48 43.2 °F 24.3 °F 30.13 in NNE 2.9 mph 4.0 mph 47 % 0.00 in
10:53 43.2 °F 23.3 °F 30.12 in North 3.8 mph 8.0 mph 45 % 0.00 in
10:58 43.5 °F 23.5 °F 30.12 in NNE 3.0 mph 4.6 mph 45 % 0.00 in
11:03 43.4 °F 23.4 °F 30.12 in NNW 2.7 mph 4.0 mph 45 % 0.00 in
11:08 43.6 °F 24.2 °F 30.12 in NW 1.9 mph 3.5 mph 46 % 0.00 in
11:13 43.7 °F 23.2 °F 30.13 in NW 1.6 mph 3.5 mph 44 % 0.00 in
11:18 43.3 °F 22.3 °F 30.13 in North 3.3 mph 4.0 mph 43 % 0.00 in
11:23 42.8 °F 21.3 °F 30.13 in North 4.0 mph 6.0 mph 42 % 0.00 in
11:28 42.5 °F 21.5 °F 30.12 in NNE 4.0 mph 4.6 mph 43 % 0.00 in
11:34 42.4 °F 21.5 °F 30.11 in NW 2.3 mph 3.5 mph 43 % 0.00 in
11:39 42.8 °F 22.4 °F 30.11 in North 3.5 mph 5.8 mph 44 % 0.00 in
11:44 43.6 °F 24.7 °F 30.11 in NW 4.3 mph 6.9 mph 47 % 0.00 in
11:49 44.3 °F 23.2 °F 30.11 in NW 2.7 mph 4.6 mph 43 % 0.00 in
11:54 44.8 °F 24.2 °F 30.11 in NW 4.0 mph 6.9 mph 44 % 0.00 in
11:59 45.4 °F 22.5 °F 30.10 in North 2.7 mph 5.0 mph 40 % 0.00 in
12:04 45.3 °F 22.4 °F 30.09 in NNE 3.9 mph 6.0 mph 40 % 0.00 in
12:09 45.4 °F 23.0 °F 30.10 in NNE 1.5 mph 4.6 mph 41 % 0.00 in
12:14 45.8 °F 22.2 °F 30.11 in WSW 1.4 mph 5.8 mph 39 % 0.00 in
12:19 46.0 °F 21.8 °F 30.11 in WSW 4.0 mph 6.9 mph 38 % 0.00 in
12:25 46.2 °F 20.7 °F 30.10 in NNW 2.4 mph 6.9 mph 36 % 0.00 in
12:30 46.4 °F 24.5 °F 30.11 in NNW 1.5 mph 6.0 mph 42 % 0.00 in
12:35 46.3 °F 19.4 °F 30.10 in NW 6.2 mph 8.1 mph 34 % 0.00 in
12:40 46.0 °F 22.4 °F 30.10 in NNE 4.2 mph 5.8 mph 39 % 0.00 in
12:45 45.7 °F 20.9 °F 30.10 in NNW 5.0 mph 8.1 mph 37 % 0.00 in
12:50 45.1 °F 20.3 °F 30.09 in NNW 2.7 mph 4.6 mph 37 % 0.00 in
12:55 45.2 °F 23.4 °F 30.09 in NNE 3.5 mph 5.8 mph 42 % 0.00 in
13:00 45.9 °F 21.7 °F 30.08 in NNE 3.1 mph 5.8 mph 38 % 0.00 in
13:05 46.5 °F 21.6 °F 30.08 in NNW 2.8 mph 5.8 mph 37 % 0.00 in
13:10 46.8 °F 19.9 °F 30.08 in WNW 2.7 mph 4.6 mph 34 % 0.00 in
13:16 46.6 °F 19.7 °F 30.08 in West 0.5 mph 3.5 mph 34 % 0.00 in
13:21 46.2 °F 20.0 °F 30.09 in West 0.8 mph 5.8 mph 35 % 0.00 in
13:26 46.0 °F 19.2 °F 30.09 in SW 2.5 mph 7.0 mph 34 % 0.00 in
13:31 45.5 °F 20.7 °F 30.08 in SW 5.4 mph 10.4 mph 37 % 0.00 in
13:36 45.2 °F 19.8 °F 30.07 in SW 1.4 mph 4.0 mph 36 % 0.00 in
13:41 45.2 °F 19.1 °F 30.07 in WSW 2.7 mph 6.9 mph 35 % 0.00 in
13:46 45.4 °F 17.2 °F 30.07 in WNW 3.9 mph 6.9 mph 32 % 0.00 in
13:51 45.8 °F 22.2 °F 30.07 in WSW 1.5 mph 4.6 mph 39 % 0.00 in
13:56 46.2 °F 18.6 °F 30.08 in SW 4.9 mph 7.0 mph 33 % 0.00 in
14:01 46.0 °F 18.5 °F 30.07 in West 2.4 mph 4.0 mph 33 % 0.00 in
14:07 45.7 °F 18.2 °F 30.07 in WSW 6.5 mph 8.1 mph 33 % 0.00 in
14:12 45.3 °F 18.5 °F 30.07 in WSW 6.1 mph 10.4 mph 34 % 0.00 in
14:17 45.1 °F 19.7 °F 30.07 in SW 3.6 mph 6.9 mph 36 % 0.00 in
14:22 45.0 °F 20.3 °F 30.07 in WNW 2.3 mph 4.6 mph 37 % 0.00 in
14:27 45.1 °F 19.7 °F 30.06 in WSW 5.2 mph 6.9 mph 36 % 0.00 in
14:32 45.1 °F 19.7 °F 30.06 in SW 2.4 mph 6.9 mph 36 % 0.00 in
14:42 44.9 °F 18.9 °F 30.05 in WSW 2.1 mph 3.5 mph 35 % 0.00 in
14:47 44.9 °F 18.9 °F 30.05 in WSW 0.7 mph 3.5 mph 35 % 0.00 in
14:52 44.9 °F 18.9 °F 30.05 in WNW 3.1 mph 5.8 mph 35 % 0.00 in
14:58 44.9 °F 20.2 °F 30.05 in WSW 0.7 mph 3.5 mph 37 % 0.00 in
15:03 45.1 °F 19.7 °F 30.05 in WSW 1.1 mph 2.3 mph 36 % 0.00 in
15:08 45.2 °F 20.4 °F 30.05 in SSW 5.0 mph 6.9 mph 37 % 0.00 in
15:13 45.3 °F 20.5 °F 30.04 in WNW 2.5 mph 3.5 mph 37 % 0.00 in
15:18 45.4 °F 20.6 °F 30.04 in SSW 3.2 mph 4.6 mph 37 % 0.00 in
15:23 45.5 °F 20.1 °F 30.04 in WSW 2.8 mph 4.6 mph 36 % 0.00 in
15:28 45.6 °F 20.8 °F 30.04 in West 0.5 mph 2.3 mph 37 % 0.00 in
15:33 45.8 °F 21.0 °F 30.04 in SSW 2.5 mph 4.0 mph 37 % 0.00 in
15:38 46.0 °F 21.1 °F 30.04 in SSW 1.0 mph 2.3 mph 37 % 0.00 in
15:43 46.2 °F 22.0 °F 30.03 in WSW 0.7 mph 3.5 mph 38 % 0.00 in
15:49 46.3 °F 20.8 °F 30.03 in NW 2.1 mph 3.5 mph 36 % 0.00 in
15:54 46.5 °F 20.9 °F 30.02 in Calm   3.5 mph 36 % 0.00 in
15:59 46.5 °F 21.6 °F 30.02 in West 3.1 mph 3.5 mph 37 % 0.00 in
16:09 46.8 °F 21.9 °F 30.02 in South 2.4 mph 3.5 mph 37 % 0.00 in
16:14 46.9 °F 23.2 °F 30.03 in SW 1.4 mph 3.5 mph 39 % 0.00 in
16:19 47.1 °F 21.5 °F 30.03 in SE 2.0 mph 3.5 mph 36 % 0.00 in
16:24 46.9 °F 22.0 °F 30.03 in SSW 3.1 mph 5.0 mph 37 % 0.00 in
16:29 46.9 °F 22.0 °F 30.03 in SSW 0.2 mph 1.2 mph 37 % 0.00 in
16:34 46.8 °F 21.9 °F 30.03 in West 3.5 mph 6.0 mph 37 % 0.00 in
16:40 46.6 °F 22.3 °F 30.03 in WSW 4.5 mph 5.8 mph 38 % 0.00 in
16:45 46.7 °F 22.4 °F 30.03 in WSW 0.4 mph 1.2 mph 38 % 0.00 in
16:50 46.5 °F 21.6 °F 30.03 in West 2.1 mph 3.5 mph 37 % 0.00 in
16:55 46.5 °F 23.4 °F 30.03 in NNE 2.2 mph 3.5 mph 40 % 0.00 in
17:00 46.4 °F 23.4 °F 30.03 in WNW 0.9 mph 2.3 mph 40 % 0.00 in
17:05 46.4 °F 20.9 °F 30.05 in SW 0.9 mph 2.3 mph 36 % 0.00 in
17:10 46.4 °F 22.1 °F 30.04 in SW 3.5 mph 5.0 mph 38 % 0.00 in
17:15 46.3 °F 22.0 °F 30.05 in West 1.7 mph 3.5 mph 38 % 0.00 in
17:20 46.2 °F 22.0 °F 30.05 in WSW 2.9 mph 5.0 mph 38 % 0.00 in
17:25 46.1 °F 21.9 °F 30.06 in WSW 3.3 mph 3.5 mph 38 % 0.00 in
17:31 46.0 °F 21.8 °F 30.06 in SW 2.4 mph 3.5 mph 38 % 0.00 in
17:36 46.0 °F 21.8 °F 30.06 in West 1.7 mph 3.5 mph 38 % 0.00 in
17:41 45.9 °F 21.1 °F 30.06 in WSW 0.4 mph 3.5 mph 37 % 0.00 in
17:46 45.9 °F 21.7 °F 30.06 in WSW 3.1 mph 3.5 mph 38 % 0.00 in
17:51 45.8 °F 21.6 °F 30.06 in SW 3.1 mph 5.0 mph 38 % 0.00 in
17:56 45.7 °F 21.5 °F 30.05 in SSW 0.3 mph 2.3 mph 38 % 0.00 in
18:01 45.6 °F 22.0 °F 30.05 in Calm     39 % 0.00 in
18:06 45.6 °F 22.0 °F 30.05 in SSW 0.6 mph 2.3 mph 39 % 0.00 in
18:11 45.5 °F 21.3 °F 30.05 in Calm   1.2 mph 38 % 0.00 in
18:16 45.4 °F 20.6 °F 30.05 in SSW 0.7 mph 2.3 mph 37 % 0.00 in
18:22 45.3 °F 20.5 °F 30.05 in Calm   1.2 mph 37 % 0.00 in
18:27 45.2 °F 21.1 °F 30.05 in SSW 0.4 mph 1.2 mph 38 % 0.00 in
18:32 45.1 °F 20.3 °F 30.05 in Calm     37 % 0.00 in
18:37 45.0 °F 20.3 °F 30.06 in Calm     37 % 0.00 in
18:42 45.0 °F 20.9 °F 30.05 in Calm     38 % 0.00 in
18:47 44.9 °F 20.2 °F 30.06 in Calm     37 % 0.00 in
18:52 44.8 °F 20.7 °F 30.06 in SSW 0.5 mph 1.2 mph 38 % 0.00 in
18:57 44.6 °F 20.5 °F 30.06 in Calm     38 % 0.00 in
19:02 44.5 °F 21.6 °F 30.06 in SSW 1.3 mph 2.3 mph 40 % 0.00 in
19:07 44.4 °F 22.1 °F 30.06 in Calm     41 % 0.00 in
19:13 44.2 °F 20.8 °F 30.05 in Calm     39 % 0.00 in
19:18 44.2 °F 21.4 °F 30.05 in Calm     40 % 0.00 in
19:23 44.0 °F 25.5 °F 30.05 in SSW 0.1 mph 1.0 mph 48 % 0.00 in
19:28 43.8 °F 25.4 °F 30.05 in SSW 0.2 mph 1.2 mph 48 % 0.00 in
19:33 43.6 °F 24.2 °F 30.05 in Calm     46 % 0.00 in
19:38 43.4 °F 23.4 °F 30.05 in Calm     45 % 0.00 in
19:43 43.2 °F 23.3 °F 30.05 in Calm     45 % 0.00 in
19:48 43.0 °F 22.5 °F 30.06 in Calm     44 % 0.00 in
19:53 42.8 °F 22.9 °F 30.06 in Calm     45 % 0.00 in
19:58 42.7 °F 23.3 °F 30.06 in Calm     46 % 0.00 in
20:04 42.6 °F 22.7 °F 30.07 in Calm     45 % 0.00 in
20:09 42.5 °F 23.2 °F 30.07 in Calm     46 % 0.00 in
20:14 42.3 °F 23.5 °F 30.07 in Calm     47 % 0.00 in
20:19 42.3 °F 23.5 °F 30.06 in Calm     47 % 0.00 in
20:24 42.1 °F 23.8 °F 30.07 in Calm     48 % 0.00 in
20:29 42.0 °F 24.2 °F 30.06 in Calm     49 % 0.00 in
20:34 41.9 °F 24.1 °F 30.06 in Calm     49 % 0.00 in
20:39 41.8 °F 24.5 °F 30.06 in Calm     50 % 0.00 in
20:44 41.7 °F 27.1 °F 30.07 in Calm     56 % 0.00 in
20:49 41.5 °F 25.6 °F 30.07 in Calm     53 % 0.00 in
20:55 41.4 °F 24.1 °F 30.07 in Calm     50 % 0.00 in
21:00 41.3 °F 25.0 °F 30.07 in Calm     52 % 0.00 in
21:05 41.2 °F 23.9 °F 30.07 in Calm     50 % 0.00 in
21:10 41.1 °F 24.3 °F 30.06 in Calm     51 % 0.00 in
21:15 40.9 °F 26.0 °F 30.07 in Calm     55 % 0.00 in
21:20 40.8 °F 26.3 °F 30.07 in Calm     56 % 0.00 in
21:25 40.7 °F 25.8 °F 30.07 in Calm     55 % 0.00 in
21:30 40.6 °F 25.7 °F 30.07 in Calm     55 % 0.00 in
21:35 40.5 °F 25.1 °F 30.06 in Calm     54 % 0.00 in
21:40 40.4 °F 25.9 °F 30.06 in Calm     56 % 0.00 in
21:46 40.3 °F 26.7 °F 30.07 in SSW 0.7 mph   58 % 0.00 in
21:51 40.1 °F 26.5 °F 30.07 in NW 1.1 mph 2.3 mph 58 % 0.00 in
22:01 40.5 °F 26.9 °F 30.07 in NNE 10.4 mph 16.1 mph 58 % 0.00 in
22:06 40.9 °F 23.7 °F 30.08 in NNE 8.8 mph 16.1 mph 50 % 0.00 in
22:11 41.2 °F 23.0 °F 30.08 in North 9.2 mph 13.0 mph 48 % 0.00 in
22:16 41.4 °F 23.2 °F 30.09 in NNE 8.1 mph 12.7 mph 48 % 0.00 in
22:21 41.5 °F 23.7 °F 30.09 in NNE 7.9 mph 13.8 mph 49 % 0.00 in
22:26 41.5 °F 22.2 °F 30.09 in NNE 8.3 mph 11.5 mph 46 % 0.00 in
22:31 41.5 °F 23.2 °F 30.09 in North 6.8 mph 9.0 mph 48 % 0.00 in
22:37 41.4 °F 21.6 °F 30.09 in NE 7.4 mph 11.5 mph 45 % 0.00 in
22:42 41.3 °F 21.0 °F 30.09 in NE 8.7 mph 15.0 mph 44 % 0.00 in
22:47 41.3 °F 21.5 °F 30.09 in NNE 9.6 mph 13.8 mph 45 % 0.00 in
22:52 41.2 °F 19.8 °F 30.09 in NE 8.1 mph 12.7 mph 42 % 0.00 in
22:57 41.0 °F 20.2 °F 30.09 in North 5.9 mph 8.1 mph 43 % 0.00 in
23:02 40.9 °F 20.6 °F 30.09 in NNE 5.6 mph 8.1 mph 44 % 0.00 in
23:07 40.8 °F 19.5 °F 30.08 in NNE 7.9 mph 13.8 mph 42 % 0.00 in
23:12 40.7 °F 19.9 °F 30.09 in NE 8.4 mph 13.8 mph 43 % 0.00 in
23:17 40.6 °F 19.3 °F 30.09 in NNE 8.4 mph 13.0 mph 42 % 0.00 in
23:22 40.4 °F 19.1 °F 30.09 in NNE 7.8 mph 10.0 mph 42 % 0.00 in
23:28 40.3 °F 19.5 °F 30.09 in North 9.1 mph 12.7 mph 43 % 0.00 in
23:33 40.1 °F 20.4 °F 30.09 in NNE 7.9 mph 12.7 mph 45 % 0.00 in
23:38 40.0 °F 18.7 °F 30.10 in NE 5.0 mph 12.7 mph 42 % 0.00 in
23:48 39.7 °F 19.0 °F 30.10 in NE 7.6 mph 11.5 mph 43 % 0.00 in
23:53 39.6 °F 19.5 °F 30.09 in NNE 6.2 mph 11.5 mph 44 % 0.00 in
23:58 39.4 °F 20.3 °F 30.09 in NNE 8.1 mph 11.5 mph 46 % 0.00 in
Crab Meadow Weather
Compliments of Weather Underground - 3 mb

Script developed by  Jim McMurry - jmcmurry@mwt.net Adapted for the template by  Wim van der Kuil - Leuven-Template.eu

Lightning: Lightning is equivalent to the electric power of 100 million light bulbs in your face.